createdAt,value
2023-02-03T00:00:43.900Z,30.27
2023-02-03T00:03:16.541Z,23.30
2023-02-03T00:05:47.353Z,31.83
2023-02-03T00:11:19.048Z,26.70
2023-02-03T00:13:54.609Z,28.70
2023-02-03T00:16:35.930Z,23.58
2023-02-03T00:19:30.772Z,22.52
2023-02-03T00:22:00.334Z,23.48
2023-02-03T00:24:39.921Z,20.50
2023-02-03T00:29:42.833Z,23.40
2023-02-03T00:32:10.504Z,22.08
2023-02-03T00:34:43.336Z,19.08
2023-02-03T00:37:16.158Z,18.77
2023-02-03T00:39:50.258Z,21.63
2023-02-03T00:42:26.335Z,29.13
2023-02-03T00:47:40.023Z,28.80
2023-02-03T00:50:11.727Z,18.88
2023-02-03T00:52:40.804Z,21.73
2023-02-03T00:55:14.797Z,28.77
2023-02-03T00:57:54.894Z,21.35
2023-02-03T01:03:19.720Z,19.55
2023-02-03T01:06:14.056Z,20.05
2023-02-03T01:08:54.145Z,19.75
2023-02-03T01:11:40.935Z,17.88
2023-02-03T01:16:59.462Z,20.67
2023-02-03T01:22:20.543Z,17.25
2023-02-03T01:24:54.175Z,21.50
2023-02-03T01:27:44.565Z,24.75
2023-02-03T01:30:16.723Z,18.42
2023-02-03T01:32:47.074Z,20.13
2023-02-03T01:35:15.001Z,22.75
2023-02-03T01:37:45.844Z,18.33
2023-02-03T01:40:13.742Z,18.80
2023-02-03T01:42:47.312Z,19.52
2023-02-03T01:47:55.863Z,22.35
2023-02-03T01:50:41.455Z,21.35
2023-02-03T01:53:15.301Z,28.95
2023-02-03T01:55:50.382Z,21.10
2023-02-03T01:58:45.546Z,24.45
2023-02-03T02:01:18.530Z,19.15
2023-02-03T02:03:56.701Z,19.77
2023-02-03T02:06:24.274Z,27.38
2023-02-03T02:08:59.610Z,22.02
2023-02-03T02:11:39.220Z,21.67
2023-02-03T02:14:10.598Z,17.45
2023-02-03T02:17:01.665Z,17.63
2023-02-03T02:19:54.360Z,21.80
2023-02-03T02:23:00.109Z,19.05
2023-02-03T02:25:49.460Z,21.83
2023-02-03T02:28:35.197Z,21.15
2023-02-03T02:31:29.396Z,23.75
2023-02-03T02:35:10.859Z,19.60
2023-02-03T02:37:59.128Z,27.15
2023-02-03T02:41:05.659Z,27.52
2023-02-03T02:43:52.392Z,26.40
2023-02-03T02:46:40.945Z,29.90
2023-02-03T02:49:17.092Z,27.25
2023-02-03T02:51:55.110Z,21.88
2023-02-03T02:54:29.444Z,21.85
2023-02-03T02:57:03.588Z,23.33
2023-02-03T02:59:39.157Z,23.70
2023-02-03T03:02:14.984Z,22.58
2023-02-03T03:07:59.308Z,25.00
2023-02-03T03:10:34.849Z,19.05
2023-02-03T03:13:06.766Z,23.35
2023-02-03T03:15:41.642Z,26.48
2023-02-03T03:18:30.155Z,21.17
2023-02-03T03:23:57.158Z,20.38
2023-02-03T03:26:38.276Z,18.00
2023-02-03T03:29:35.359Z,20.92
2023-02-03T03:32:39.936Z,20.80
2023-02-03T03:35:13.621Z,21.17
2023-02-03T03:38:09.747Z,26.30
2023-02-03T03:40:44.998Z,22.15
2023-02-03T03:46:16.359Z,18.70
2023-02-03T03:49:14.649Z,21.45
2023-02-03T03:52:04.529Z,17.65
2023-02-03T03:54:40.629Z,22.92
2023-02-03T03:57:31.154Z,14.40
2023-02-03T04:00:07.655Z,30.50
2023-02-03T04:02:44.464Z,25.85
2023-02-03T04:05:17.511Z,30.13
2023-02-03T04:07:48.621Z,20.85
2023-02-03T04:10:32.407Z,27.80
2023-02-03T04:13:02.356Z,16.23
2023-02-03T04:15:35.611Z,20.98
2023-02-03T04:18:06.507Z,15.90
2023-02-03T04:20:42.694Z,17.98
2023-02-03T04:23:26.430Z,16.77
2023-02-03T04:25:59.692Z,14.80
2023-02-03T04:31:11.824Z,14.32
2023-02-03T04:33:44.567Z,19.33
2023-02-03T04:36:18.571Z,12.27
2023-02-03T04:38:49.220Z,22.15
2023-02-03T04:41:23.527Z,18.95
2023-02-03T04:44:18.118Z,17.75
2023-02-03T04:46:50.343Z,19.80
2023-02-03T04:49:20.608Z,17.40
2023-02-03T04:51:53.134Z,14.27
2023-02-03T04:54:30.310Z,18.23
2023-02-03T04:57:00.746Z,18.45
2023-02-03T04:59:32.517Z,20.10
2023-02-03T05:02:05.834Z,20.03
2023-02-03T05:07:22.580Z,19.77
2023-02-03T05:09:49.898Z,22.63
2023-02-03T05:12:24.786Z,19.20
2023-02-03T05:15:07.776Z,19.67
2023-02-03T05:17:40.209Z,25.92
2023-02-03T05:20:13.189Z,25.17
2023-02-03T05:22:46.161Z,26.85
2023-02-03T05:25:30.243Z,22.15
2023-02-03T05:27:57.677Z,25.98
2023-02-03T05:30:29.800Z,21.25
2023-02-03T05:33:04.450Z,17.73
2023-02-03T05:35:46.764Z,25.45
2023-02-03T05:38:14.153Z,23.35
2023-02-03T05:41:08.893Z,22.17
2023-02-03T05:43:36.888Z,25.10
2023-02-03T05:46:08.020Z,32.53
2023-02-03T05:48:36.058Z,24.73
2023-02-03T05:51:11.600Z,34.00
2023-02-03T05:53:39.284Z,31.58
2023-02-03T05:56:08.838Z,36.25
2023-02-03T05:58:42.170Z,24.85
2023-02-03T06:01:09.708Z,23.15
2023-02-03T06:03:41.017Z,34.25
2023-02-03T06:06:20.461Z,29.33
2023-02-03T06:08:47.787Z,23.95
2023-02-03T06:11:24.140Z,29.38
2023-02-03T06:13:58.866Z,26.92
2023-02-03T06:16:34.325Z,25.77
2023-02-03T06:19:08.135Z,28.85
2023-02-03T06:21:46.751Z,27.38
2023-02-03T06:24:40.801Z,30.83
2023-02-03T06:27:11.473Z,26.85
2023-02-03T06:29:42.416Z,28.05
2023-02-03T06:32:16.183Z,24.63
2023-02-03T06:34:43.649Z,32.22
2023-02-03T06:37:17.565Z,33.70
2023-02-03T06:40:04.984Z,22.95
2023-02-03T06:42:40.764Z,34.33
2023-02-03T06:45:21.511Z,27.38
2023-02-03T06:48:33.656Z,24.65
2023-02-03T06:51:31.117Z,27.50
2023-02-03T06:54:54.716Z,33.70
2023-02-03T07:00:47.430Z,35.42
2023-02-03T07:09:42.200Z,40.22
2023-02-03T07:12:13.632Z,38.75
2023-02-03T07:14:46.363Z,29.45
2023-02-03T07:17:26.113Z,31.52
2023-02-03T07:20:19.743Z,28.98
2023-02-03T07:23:21.164Z,37.80
2023-02-03T07:26:26.915Z,35.47
2023-02-03T07:29:24.908Z,33.42
2023-02-03T07:32:27.950Z,26.65
2023-02-03T07:35:26.111Z,29.67
2023-02-03T07:38:21.847Z,30.75
2023-02-03T07:41:17.644Z,32.28
2023-02-03T07:44:24.409Z,37.33
2023-02-03T07:47:15.393Z,44.70
2023-02-03T07:49:55.838Z,30.90
2023-02-03T07:55:43.951Z,29.75
2023-02-03T07:58:48.230Z,36.63
2023-02-03T08:01:44.180Z,32.60
2023-02-03T08:04:24.373Z,36.00
2023-02-03T08:07:22.917Z,49.38
2023-02-03T08:10:18.374Z,40.78
2023-02-03T08:13:08.437Z,39.90
2023-02-03T08:15:54.229Z,44.92
2023-02-03T08:19:00.893Z,39.53
2023-02-03T08:21:57.889Z,39.92
2023-02-03T08:25:13.196Z,45.17
2023-02-03T08:28:04.893Z,49.67
2023-02-03T08:31:01.117Z,35.15
2023-02-03T08:33:57.244Z,41.22
2023-02-03T08:39:28.024Z,57.92
2023-02-03T08:42:24.697Z,49.72
2023-02-03T08:45:15.322Z,40.00
2023-02-03T08:47:57.531Z,35.10
2023-02-03T08:50:49.860Z,43.70
2023-02-03T08:53:56.234Z,35.40
2023-02-03T08:56:49.391Z,61.22
2023-02-03T08:59:44.152Z,45.97
2023-02-03T09:02:49.374Z,49.97
2023-02-03T09:05:38.113Z,32.85
2023-02-03T09:08:45.586Z,40.08
2023-02-03T09:11:31.506Z,40.40
2023-02-03T09:14:50.393Z,38.78
2023-02-03T09:17:54.242Z,37.17
2023-02-03T09:20:57.421Z,42.80
2023-02-03T09:24:11.306Z,32.60
2023-02-03T09:26:48.302Z,38.60
2023-02-03T09:29:43.937Z,34.42
2023-02-03T09:35:31.728Z,37.58
2023-02-03T09:38:04.457Z,38.03
2023-02-03T09:41:11.609Z,35.90
2023-02-03T09:47:45.748Z,30.35
2023-02-03T09:50:39.482Z,41.58
2023-02-03T09:53:34.043Z,39.53
2023-02-03T09:56:55.355Z,41.08
2023-02-03T10:00:01.883Z,44.50
2023-02-03T10:03:10.036Z,31.05
2023-02-03T10:06:24.031Z,43.10
2023-02-03T10:13:05.457Z,32.58
2023-02-03T10:16:26.261Z,44.97
2023-02-03T10:19:29.920Z,31.30
2023-02-03T10:22:27.809Z,39.28
2023-02-03T10:25:52.611Z,36.42
2023-02-03T10:28:59.056Z,41.05
2023-02-03T10:35:06.356Z,32.63
2023-02-03T10:38:00.131Z,32.92
2023-02-03T10:41:11.765Z,40.75
2023-02-03T10:44:08.972Z,45.17
2023-02-03T10:47:46.007Z,46.10
2023-02-03T10:50:32.765Z,39.72
2023-02-03T10:56:38.177Z,41.28
2023-02-03T10:59:44.763Z,31.33
2023-02-03T11:02:46.829Z,31.55
2023-02-03T11:09:04.986Z,35.42
2023-02-03T11:11:50.601Z,41.03
2023-02-03T11:14:50.408Z,38.97
2023-02-03T11:20:54.056Z,40.78
2023-02-03T11:23:29.016Z,38.40
2023-02-03T11:25:59.081Z,43.95
2023-02-03T11:28:42.645Z,34.30
2023-02-03T11:31:29.391Z,32.50
2023-02-03T11:34:22.460Z,33.35
2023-02-03T11:37:09.134Z,41.50
2023-02-03T11:40:23.545Z,38.42
2023-02-03T11:46:15.227Z,35.50
2023-02-03T11:49:15.183Z,30.63
2023-02-03T11:52:37.702Z,22.92
2023-02-03T11:55:46.732Z,24.02
2023-02-03T11:58:33.348Z,24.45
2023-02-03T12:01:18.214Z,21.55
2023-02-03T12:04:29.998Z,24.77
2023-02-03T12:07:17.718Z,24.05
2023-02-03T12:10:18.700Z,27.25
2023-02-03T12:17:13.536Z,25.20
2023-02-03T12:20:19.941Z,23.35
2023-02-03T12:23:55.989Z,19.90
2023-02-03T12:27:00.379Z,24.55
2023-02-03T12:33:19.872Z,26.63
2023-02-03T12:35:58.359Z,24.35
2023-02-03T12:38:52.513Z,24.67
2023-02-03T12:41:43.421Z,18.63
2023-02-03T12:45:09.164Z,27.63
2023-02-03T12:48:24.284Z,25.45
2023-02-03T12:51:21.682Z,23.13
2023-02-03T12:54:07.692Z,24.05
2023-02-03T12:57:18.563Z,16.67
2023-02-03T13:00:19.903Z,23.60
2023-02-03T13:07:12.539Z,21.20
2023-02-03T13:14:35.618Z,27.77
2023-02-03T13:17:42.070Z,16.83
2023-02-03T13:21:00.171Z,24.33
2023-02-03T13:23:56.436Z,34.03
2023-02-03T13:27:05.416Z,24.33
2023-02-03T13:30:06.962Z,22.27
2023-02-03T13:33:32.263Z,27.77
2023-02-03T13:36:24.532Z,25.90
2023-02-03T13:39:19.638Z,20.60
2023-02-03T13:42:29.036Z,28.63
2023-02-03T13:45:33.452Z,21.50
2023-02-03T13:48:24.439Z,26.02
2023-02-03T13:51:22.702Z,25.02
2023-02-03T13:54:17.383Z,22.08
2023-02-03T13:56:56.567Z,23.88
2023-02-03T14:00:02.722Z,20.60
2023-02-03T14:03:03.757Z,20.10
2023-02-03T14:09:39.257Z,26.95
2023-02-03T14:12:46.408Z,17.05
2023-02-03T14:16:04.538Z,13.40
2023-02-03T14:18:58.669Z,17.02
2023-02-03T14:25:15.462Z,23.33
2023-02-03T14:28:26.084Z,18.58
2023-02-03T14:31:20.505Z,25.98
2023-02-03T14:37:25.731Z,29.00
2023-02-03T14:40:12.661Z,15.95
2023-02-03T14:43:10.432Z,18.00
2023-02-03T14:46:00.251Z,21.65
2023-02-03T14:49:09.519Z,19.13
2023-02-03T14:52:10.559Z,22.40
2023-02-03T14:55:31.835Z,16.55
2023-02-03T14:58:07.645Z,19.38
2023-02-03T15:00:58.588Z,18.30
2023-02-03T15:03:37.850Z,14.65
2023-02-03T15:06:09.703Z,21.33
2023-02-03T15:08:53.524Z,18.98
2023-02-03T15:11:51.434Z,20.27
2023-02-03T15:18:45.089Z,19.83
2023-02-03T15:24:40.210Z,15.88
2023-02-03T15:27:45.867Z,20.08
2023-02-03T15:31:19.258Z,20.85
2023-02-03T15:34:45.518Z,16.77
2023-02-03T15:40:09.911Z,23.27
2023-02-03T15:43:28.151Z,21.27
2023-02-03T15:46:04.710Z,23.20
2023-02-03T15:49:24.606Z,29.00
2023-02-03T15:52:34.125Z,30.92
2023-02-03T15:55:38.184Z,26.63
2023-02-03T15:58:28.728Z,27.52
2023-02-03T16:01:08.516Z,28.30
2023-02-03T16:03:56.555Z,23.35
2023-02-03T16:10:09.848Z,26.70
2023-02-03T16:12:43.516Z,22.92
2023-02-03T16:15:28.190Z,24.33
2023-02-03T16:18:10.963Z,22.30
2023-02-03T16:21:00.738Z,26.15
2023-02-03T16:23:37.118Z,26.20
2023-02-03T16:26:41.237Z,21.25
2023-02-03T16:29:45.125Z,23.27
2023-02-03T16:33:11.419Z,24.85
2023-02-03T16:36:16.750Z,21.92
2023-02-03T16:39:34.725Z,21.73
2023-02-03T16:42:37.493Z,22.85
2023-02-03T16:45:44.972Z,29.27
2023-02-03T16:48:54.394Z,30.67
2023-02-03T16:52:03.628Z,25.38
2023-02-03T16:54:42.160Z,23.17
2023-02-03T16:57:34.993Z,24.42
2023-02-03T17:00:16.097Z,28.60
2023-02-03T17:02:47.622Z,24.13
2023-02-03T17:05:21.758Z,22.20
2023-02-03T17:11:23.809Z,29.85
2023-02-03T17:14:07.309Z,20.65
2023-02-03T17:16:34.786Z,22.50
2023-02-03T17:19:29.620Z,24.48
2023-02-03T17:22:13.210Z,21.67
2023-02-03T17:24:45.728Z,20.67
2023-02-03T17:27:18.844Z,20.83
2023-02-03T17:33:27.746Z,15.95
2023-02-03T17:56:29.311Z,17.38
2023-02-03T17:59:24.127Z,16.70
2023-02-03T18:01:59.689Z,22.50
2023-02-03T18:04:45.389Z,16.63
2023-02-03T18:07:31.147Z,13.65
2023-02-03T18:10:06.112Z,16.02
2023-02-03T18:12:39.755Z,11.55
2023-02-03T18:20:51.788Z,17.65
2023-02-03T18:23:22.988Z,14.75
2023-02-03T18:25:56.010Z,14.90
2023-02-03T18:28:31.691Z,17.75
2023-02-03T18:31:24.152Z,15.20
2023-02-03T18:34:13.059Z,24.63
2023-02-03T18:36:55.011Z,22.75
2023-02-03T18:39:32.286Z,22.38
2023-02-03T18:42:03.509Z,23.75
2023-02-03T18:44:35.213Z,23.77
2023-02-03T18:47:15.288Z,22.60
2023-02-03T18:52:46.658Z,19.35
2023-02-03T18:55:19.703Z,17.00
2023-02-03T18:57:55.831Z,18.83
2023-02-03T19:00:36.834Z,26.15
2023-02-03T19:03:04.675Z,20.95
2023-02-03T19:11:46.652Z,29.83
2023-02-03T19:14:38.747Z,30.27
2023-02-03T19:17:33.248Z,30.70
2023-02-03T19:20:13.882Z,26.58
2023-02-03T19:22:50.852Z,24.92
2023-02-03T19:25:36.820Z,26.42
2023-02-03T19:28:40.561Z,35.53
2023-02-03T19:31:23.679Z,26.08
2023-02-03T19:34:07.422Z,34.00
2023-02-03T19:36:53.009Z,39.90
2023-02-03T19:42:25.222Z,31.27
2023-02-03T19:45:24.156Z,28.77
2023-02-03T19:48:04.454Z,38.95
2023-02-03T19:50:46.693Z,39.55
2023-02-03T19:53:44.091Z,36.85
2023-02-03T19:56:35.866Z,39.88
2023-02-03T19:59:21.984Z,33.75
2023-02-03T20:02:27.116Z,35.78
2023-02-03T20:05:00.807Z,35.95
2023-02-03T20:07:48.553Z,33.25
2023-02-03T20:10:31.072Z,32.72
2023-02-03T20:16:20.107Z,36.67
2023-02-03T20:19:12.272Z,35.20
2023-02-03T20:21:54.547Z,28.63
2023-02-03T20:24:40.153Z,37.97
2023-02-03T20:27:32.464Z,39.28
2023-02-03T20:30:23.456Z,35.80
2023-02-03T20:33:11.659Z,39.55
2023-02-03T20:35:45.316Z,34.63
2023-02-03T20:38:27.483Z,33.67
2023-02-03T20:41:15.044Z,34.83
2023-02-03T20:44:00.413Z,30.85
2023-02-03T20:46:42.289Z,37.05
2023-02-03T20:49:32.477Z,34.58
2023-02-03T20:52:12.078Z,41.30
2023-02-03T20:55:13.022Z,34.10
2023-02-03T20:58:00.673Z,34.70
2023-02-03T21:01:05.989Z,36.08
2023-02-03T21:04:03.242Z,44.15
2023-02-03T21:06:34.648Z,37.63
2023-02-03T21:09:37.900Z,43.80
2023-02-03T21:12:17.141Z,62.33
2023-02-03T21:14:53.300Z,50.33
2023-02-03T21:17:34.482Z,55.05
2023-02-03T21:20:16.757Z,43.08
2023-02-03T21:23:14.551Z,39.38
2023-02-03T21:25:51.748Z,36.80
2023-02-03T21:28:29.450Z,47.17
2023-02-03T21:31:05.296Z,59.83
2023-02-03T21:33:54.655Z,39.75
2023-02-03T21:37:05.835Z,37.22
2023-02-03T21:39:48.989Z,29.17
2023-02-03T21:42:42.481Z,37.33
2023-02-03T21:45:20.154Z,32.45
2023-02-03T21:47:55.211Z,32.33
2023-02-03T21:50:35.292Z,32.92
2023-02-03T21:53:35.183Z,28.25
2023-02-03T21:56:43.408Z,28.98
2023-02-03T21:59:47.360Z,36.22
2023-02-03T22:03:13.887Z,33.83
2023-02-03T22:05:55.257Z,35.20
2023-02-03T22:08:40.664Z,30.63
2023-02-03T22:14:00.823Z,30.13
2023-02-03T22:16:33.388Z,25.98
2023-02-03T22:19:09.238Z,36.83
2023-02-03T22:22:21.587Z,31.85
2023-02-03T22:24:54.662Z,36.38
2023-02-03T22:27:26.190Z,29.20
2023-02-03T22:29:59.143Z,26.00
2023-02-03T22:32:56.854Z,29.75
2023-02-03T22:35:36.213Z,32.42
2023-02-03T22:38:22.371Z,33.78
2023-02-03T22:41:21.158Z,35.25
2023-02-03T22:44:23.602Z,33.70
2023-02-03T22:47:20.926Z,30.60
2023-02-03T22:54:05.702Z,32.85
2023-02-03T22:57:19.755Z,32.70
2023-02-03T23:06:37.605Z,31.23
2023-02-03T23:09:39.636Z,30.23
2023-02-03T23:12:39.479Z,35.13
2023-02-03T23:15:20.379Z,32.55
2023-02-03T23:18:12.385Z,35.33
2023-02-03T23:21:19.596Z,28.38
2023-02-03T23:24:11.608Z,35.65
2023-02-03T23:26:57.114Z,28.98
2023-02-03T23:29:47.193Z,37.85
2023-02-03T23:33:01.473Z,35.40
2023-02-03T23:35:50.553Z,32.40
2023-02-03T23:41:47.775Z,36.42
2023-02-03T23:44:27.106Z,30.83
2023-02-03T23:47:11.961Z,34.63
2023-02-03T23:49:59.525Z,35.63
2023-02-03T23:52:41.732Z,29.88
2023-02-03T23:55:25.958Z,31.10
2023-02-03T23:58:11.820Z,39.47
